Terminal Aerodrome Forecast
Issued by NWS Charleston, WV

Home | Current Version | Previous Version | Text Only | Print | Product List | Glossary On
Versions: 1 2 3 4 5 6 7 8 9 10 11 12 13 14 15 16 17 18 19 20 21 22 23 24 25
000
FTUS41 KRLX 171738
TAFPKB
TAF
KPKB 171738Z 1718/1818 21008KT P6SM SCT025
     FM171850 22006KT 2SM TSRA BKN020CB
     FM171930 21006KT P6SM VCTS BKN040CB
     FM180100 20005KT 3SM TSRA BKN020CB
     FM180500 22004KT P6SM OVC010
     FM181600 24005KT P6SM SCT030=

USA.gov is the U.S. government's official web portal to all federal, state and local government web resources and services.